createdAt,value
2022-11-19T00:04:23.500Z,0.50
2022-11-19T00:06:59.988Z,0.30
2022-11-19T00:09:27.042Z,0.40
2022-11-19T00:17:12.237Z,0.30
2022-11-19T00:51:38.729Z,0.10
2022-11-19T00:59:01.514Z,0.10
2022-11-19T01:06:25.432Z,0.10
2022-11-19T01:08:53.393Z,0.10
2022-11-19T01:11:27.331Z,0.00
2022-11-19T01:13:55.000Z,0.00
2022-11-19T01:16:26.949Z,0.60
2022-11-19T01:21:25.310Z,-0.20
2022-11-19T01:31:27.215Z,-0.30
2022-11-19T01:36:28.046Z,-0.30
2022-11-19T01:41:28.779Z,-0.40
2022-11-19T01:43:59.327Z,-0.50
2022-11-19T01:46:32.063Z,-0.60
2022-11-19T01:49:08.595Z,-0.60
2022-11-19T01:51:55.843Z,-0.60
2022-11-19T01:54:31.146Z,-0.70
2022-11-19T01:57:09.073Z,-0.70
2022-11-19T01:59:37.730Z,-0.80
2022-11-19T02:04:33.087Z,-0.80
2022-11-19T02:07:00.295Z,-0.70
2022-11-19T02:09:28.356Z,-0.90
2022-11-19T02:12:19.378Z,-1.00
2022-11-19T02:15:21.879Z,-0.90
2022-11-19T02:18:06.956Z,-1.00
2022-11-19T02:23:33.417Z,-1.00
2022-11-19T02:26:24.917Z,-1.00
2022-11-19T02:28:59.893Z,-1.00
2022-11-19T02:31:58.187Z,-1.30
2022-11-19T02:34:35.904Z,-1.20
2022-11-19T02:37:16.521Z,-1.20
2022-11-19T02:40:02.622Z,-1.20
2022-11-19T02:45:08.916Z,-1.20
2022-11-19T02:47:40.670Z,-1.30
2022-11-19T02:50:14.799Z,-1.30
2022-11-19T02:52:44.466Z,-1.30
2022-11-19T02:55:16.432Z,-1.50
2022-11-19T02:57:48.594Z,-1.30
2022-11-19T03:05:51.927Z,-1.00
2022-11-19T03:08:19.651Z,-1.10
2022-11-19T03:11:06.138Z,-1.00
2022-11-19T03:14:04.300Z,-0.80
2022-11-19T03:16:42.188Z,-1.00
2022-11-19T03:19:48.136Z,-1.00
2022-11-19T03:22:30.117Z,-1.00
2022-11-19T03:25:03.390Z,-1.00
2022-11-19T03:27:41.426Z,-0.90
2022-11-19T03:30:10.160Z,-1.00
2022-11-19T03:32:53.235Z,-1.10
2022-11-19T03:35:29.677Z,-1.20
2022-11-19T03:37:59.958Z,-1.30
2022-11-19T03:40:31.119Z,-1.30
2022-11-19T03:43:00.596Z,-1.40
2022-11-19T03:45:32.527Z,-1.50
2022-11-19T03:48:02.395Z,-1.60
2022-11-19T03:50:50.455Z,-1.70
2022-11-19T03:53:19.052Z,-1.70
2022-11-19T03:55:56.630Z,-1.80
2022-11-19T03:58:25.338Z,-0.50
2022-11-19T04:05:47.722Z,-1.80
2022-11-19T04:08:14.764Z,-1.80
2022-11-19T04:13:09.285Z,-1.90
2022-11-19T04:18:03.837Z,-2.20
2022-11-19T04:32:48.201Z,-2.40
2022-11-19T04:45:08.689Z,-2.80
2022-11-19T04:52:36.338Z,-2.70
2022-11-19T04:57:33.883Z,-2.90
2022-11-19T05:00:00.883Z,-3.10
2022-11-19T05:07:22.802Z,-2.60
2022-11-19T05:09:49.853Z,-3.20
2022-11-19T05:14:45.650Z,-3.60
2022-11-19T05:27:03.982Z,-2.90
2022-11-19T05:29:30.977Z,-3.10
2022-11-19T05:36:52.767Z,-2.70
2022-11-19T05:56:34.910Z,-3.00
2022-11-19T06:01:29.995Z,-3.30
2022-11-19T06:03:57.271Z,-3.50
2022-11-19T06:11:38.465Z,-3.20
2022-11-19T06:14:05.587Z,-3.50
2022-11-19T06:26:27.501Z,-3.50
2022-11-19T06:28:54.951Z,-3.40
2022-11-19T06:31:22.528Z,-3.50
2022-11-19T06:33:53.444Z,-3.60
2022-11-19T06:36:21.202Z,-3.70
2022-11-19T06:38:48.342Z,-3.20
2022-11-19T06:46:11.732Z,-3.90
2022-11-19T06:51:07.421Z,-4.10
2022-11-19T06:53:34.939Z,-4.00
2022-11-19T06:56:04.547Z,-4.10
2022-11-19T07:00:59.153Z,-3.80
2022-11-19T07:06:02.574Z,-3.60
2022-11-19T07:08:33.633Z,-3.50
2022-11-19T07:11:01.891Z,-3.90
2022-11-19T07:21:11.117Z,-3.40
2022-11-19T07:26:05.702Z,-3.60
2022-11-19T07:28:34.829Z,-3.60
2022-11-19T07:31:06.066Z,-3.60
2022-11-19T07:48:45.101Z,-3.00
2022-11-19T08:01:18.375Z,-2.80
2022-11-19T08:03:49.603Z,-2.70
2022-11-19T08:06:19.506Z,-2.70
2022-11-19T08:08:47.302Z,-2.80
2022-11-19T08:11:16.696Z,-2.60
2022-11-19T08:16:14.006Z,-2.50
2022-11-19T08:21:11.208Z,-2.30
2022-11-19T08:23:39.499Z,-2.40
2022-11-19T08:26:07.602Z,-2.40
2022-11-19T08:31:09.349Z,-2.50
2022-11-19T08:36:05.218Z,-2.50
2022-11-19T08:38:38.377Z,-2.50
2022-11-19T08:41:35.854Z,-2.40
2022-11-19T08:49:24.447Z,-1.80
2022-11-19T08:51:52.275Z,-1.30
2022-11-19T08:56:48.030Z,-1.80
2022-11-19T08:59:15.151Z,-1.80
2022-11-19T09:06:37.906Z,-1.40
2022-11-19T09:09:05.235Z,-1.90
2022-11-19T09:18:56.463Z,-1.30
2022-11-19T09:21:23.566Z,-0.60
2022-11-19T09:26:19.487Z,-1.10
2022-11-19T09:31:19.879Z,-1.00
2022-11-19T09:33:49.861Z,-0.60
2022-11-19T09:36:18.646Z,-0.70
2022-11-19T09:42:19.079Z,-0.60
2022-11-19T09:44:58.322Z,-0.50
2022-11-19T09:50:19.443Z,-0.40
2022-11-19T09:52:49.571Z,-0.40
2022-11-19T09:55:34.560Z,-0.50
2022-11-19T09:58:07.306Z,-0.40
2022-11-19T10:03:12.026Z,-0.10
2022-11-19T10:05:56.909Z,-0.20
2022-11-19T10:09:03.090Z,0.00
2022-11-19T10:11:48.839Z,-0.10
2022-11-19T10:14:30.860Z,0.10
2022-11-19T10:17:38.887Z,0.00
2022-11-19T10:20:14.131Z,0.00
2022-11-19T10:23:08.634Z,0.10
2022-11-19T10:25:45.465Z,0.10
2022-11-19T10:28:15.882Z,0.40
2022-11-19T10:30:49.152Z,0.40
2022-11-19T10:33:25.015Z,0.50
2022-11-19T10:35:57.094Z,0.50
2022-11-19T10:39:03.888Z,0.70
2022-11-19T10:41:42.299Z,0.40
2022-11-19T10:44:38.100Z,0.50
2022-11-19T10:47:11.947Z,0.60
2022-11-19T10:49:42.260Z,0.50
2022-11-19T10:52:19.039Z,0.70
2022-11-19T10:54:47.750Z,0.50
2022-11-19T10:57:18.774Z,0.50
2022-11-19T10:59:47.664Z,0.70
2022-11-19T11:02:31.527Z,0.80
2022-11-19T11:05:24.642Z,0.90
2022-11-19T11:07:59.022Z,0.80
2022-11-19T11:15:48.212Z,1.00
2022-11-19T11:20:49.868Z,1.20
2022-11-19T11:23:20.652Z,1.30
2022-11-19T11:26:11.773Z,1.30
2022-11-19T11:29:07.943Z,1.40
2022-11-19T11:31:48.029Z,1.40
2022-11-19T11:36:43.834Z,1.50
2022-11-19T11:39:27.977Z,1.50
2022-11-19T11:42:17.416Z,1.30
2022-11-19T11:44:55.941Z,1.30
2022-11-19T11:47:30.227Z,1.30
2022-11-19T11:50:20.104Z,0.90
2022-11-19T11:52:53.053Z,1.20
2022-11-19T11:55:25.957Z,1.30
2022-11-19T11:58:05.007Z,1.30
2022-11-19T12:00:42.805Z,1.60
2022-11-19T12:03:18.919Z,1.40
2022-11-19T12:06:15.344Z,1.50
2022-11-19T12:09:01.187Z,1.70
2022-11-19T12:11:57.938Z,1.80
2022-11-19T12:14:37.214Z,1.70
2022-11-19T12:17:23.090Z,1.80
2022-11-19T12:20:01.985Z,1.90
2022-11-19T12:22:45.587Z,1.80
2022-11-19T12:25:26.102Z,1.80
2022-11-19T12:28:19.790Z,1.80
2022-11-19T12:31:10.907Z,1.90
2022-11-19T12:34:10.648Z,2.10
2022-11-19T12:36:49.632Z,2.40
2022-11-19T12:39:44.357Z,2.20
2022-11-19T12:42:19.984Z,2.30
2022-11-19T12:45:11.430Z,2.60
2022-11-19T12:47:56.935Z,2.50
2022-11-19T12:51:00.553Z,2.70
2022-11-19T12:56:16.341Z,2.50
2022-11-19T12:59:01.244Z,2.80
2022-11-19T13:01:34.227Z,2.90
2022-11-19T13:04:32.227Z,2.80
2022-11-19T13:07:08.718Z,2.50
2022-11-19T13:09:45.072Z,2.40
2022-11-19T13:12:16.269Z,2.30
2022-11-19T13:14:55.208Z,2.20
2022-11-19T13:17:29.560Z,2.10
2022-11-19T13:20:04.296Z,2.10
2022-11-19T13:22:42.524Z,1.80
2022-11-19T13:25:22.178Z,1.70
2022-11-19T13:27:51.735Z,1.70
2022-11-19T13:30:31.257Z,1.70
2022-11-19T13:33:00.933Z,1.80
2022-11-19T13:35:54.027Z,1.80
2022-11-19T13:38:28.294Z,1.90
2022-11-19T13:41:13.121Z,2.00
2022-11-19T13:43:59.413Z,1.90
2022-11-19T13:46:33.726Z,2.10
2022-11-19T13:49:51.609Z,2.00
2022-11-19T13:52:18.523Z,1.70
2022-11-19T13:57:36.810Z,2.00
2022-11-19T14:05:17.968Z,2.00
2022-11-19T14:08:12.448Z,1.80
2022-11-19T14:16:23.511Z,2.00
2022-11-19T14:19:13.017Z,1.90
2022-11-19T14:22:14.953Z,1.90
2022-11-19T14:25:06.418Z,1.80
2022-11-19T14:27:34.640Z,1.80
2022-11-19T14:30:09.639Z,1.80
2022-11-19T14:37:43.171Z,1.50
2022-11-19T14:40:13.344Z,1.50
2022-11-19T14:43:34.702Z,1.50
2022-11-19T14:48:35.654Z,1.40
2022-11-19T14:51:11.335Z,1.20
2022-11-19T14:53:53.192Z,1.20
2022-11-19T14:56:23.620Z,1.10
2022-11-19T14:59:07.273Z,1.00
2022-11-19T15:01:35.154Z,3.30
2022-11-19T15:04:07.452Z,0.90
2022-11-19T15:06:36.556Z,1.00
2022-11-19T15:09:06.157Z,1.20
2022-11-19T15:11:59.223Z,0.80
2022-11-19T15:14:29.006Z,0.70
2022-11-19T15:16:58.942Z,0.50
2022-11-19T15:24:39.983Z,0.20
2022-11-19T15:27:27.052Z,0.30
2022-11-19T15:30:17.266Z,0.10
2022-11-19T15:33:22.948Z,-0.40
2022-11-19T15:36:27.342Z,-0.30
2022-11-19T15:39:15.488Z,0.10
2022-11-19T15:42:00.271Z,-0.60
2022-11-19T15:44:35.546Z,-0.70
2022-11-19T15:47:06.954Z,-0.80
2022-11-19T15:49:35.371Z,-0.90
2022-11-19T15:52:27.233Z,-1.00
2022-11-19T15:55:11.290Z,-1.00
2022-11-19T15:57:43.851Z,0.90
2022-11-19T16:00:19.670Z,-1.20
2022-11-19T16:02:49.523Z,-1.10
2022-11-19T16:05:30.051Z,-1.40
2022-11-19T16:07:59.819Z,-1.20
2022-11-19T16:10:32.898Z,-1.30
2022-11-19T16:13:20.630Z,-1.10
2022-11-19T16:16:11.045Z,-1.70
2022-11-19T16:18:48.817Z,-1.20
2022-11-19T16:21:31.173Z,-1.40
2022-11-19T16:24:18.980Z,-1.30
2022-11-19T16:29:22.123Z,-1.40
2022-11-19T16:32:02.202Z,-1.40
2022-11-19T16:34:31.265Z,-1.40
2022-11-19T16:39:27.915Z,-1.80
2022-11-19T16:42:19.028Z,-1.90
2022-11-19T16:44:47.593Z,-2.10
2022-11-19T16:47:26.658Z,-2.20
2022-11-19T16:49:58.338Z,-2.30
2022-11-19T16:52:34.447Z,-2.30
2022-11-19T16:55:02.393Z,-2.50
2022-11-19T16:57:30.413Z,-2.60
2022-11-19T17:00:02.970Z,-2.60
2022-11-19T17:02:39.246Z,-2.60
2022-11-19T17:05:12.795Z,-2.90
2022-11-19T17:10:13.522Z,-2.90
2022-11-19T17:12:59.693Z,-3.20
2022-11-19T17:15:41.640Z,-2.80
2022-11-19T17:18:34.742Z,-2.90
2022-11-19T17:21:25.789Z,-3.00
2022-11-19T17:23:53.615Z,-3.00
2022-11-19T17:26:27.242Z,-3.10
2022-11-19T17:29:09.102Z,-3.00
2022-11-19T17:34:19.206Z,-3.10
2022-11-19T17:39:14.808Z,-3.20
2022-11-19T17:42:01.866Z,-3.30
2022-11-19T17:44:36.619Z,-3.30
2022-11-19T17:47:21.191Z,-3.30
2022-11-19T17:52:31.026Z,-3.30
2022-11-19T17:55:08.962Z,-3.30
2022-11-19T18:00:10.161Z,-4.10
2022-11-19T18:05:15.166Z,-3.50
2022-11-19T18:15:04.938Z,-3.40
2022-11-19T18:34:46.027Z,-3.40
2022-11-19T18:42:11.366Z,-3.70
2022-11-19T18:44:38.839Z,-3.70
2022-11-19T18:47:10.575Z,-3.90
2022-11-19T18:49:38.472Z,-3.70
2022-11-19T18:52:08.043Z,-3.40
2022-11-19T18:54:35.265Z,-3.50
2022-11-19T19:12:13.078Z,-3.60
2022-11-19T19:27:00.872Z,-3.60
2022-11-19T19:29:28.181Z,-3.50
2022-11-19T19:56:33.804Z,-4.00
2022-11-19T20:01:34.461Z,-3.70
2022-11-19T20:04:09.297Z,-3.80
2022-11-19T20:06:39.032Z,-3.80
2022-11-19T20:11:37.458Z,-3.80
2022-11-19T20:14:04.792Z,-4.10
2022-11-19T20:16:33.839Z,-4.00
2022-11-19T20:19:01.716Z,-4.20
2022-11-19T20:21:34.318Z,-3.90
2022-11-19T20:26:39.676Z,-4.10
2022-11-19T20:34:04.555Z,-4.00
2022-11-19T20:36:34.650Z,-4.00
2022-11-19T20:44:19.914Z,-4.00
2022-11-19T20:51:46.018Z,-4.30
2022-11-19T20:59:08.803Z,-4.40
2022-11-19T21:16:23.385Z,-4.30
2022-11-19T21:18:51.269Z,-4.40
2022-11-19T21:21:19.861Z,-4.50
2022-11-19T21:26:19.878Z,-4.60
2022-11-19T21:28:51.449Z,-4.50
2022-11-19T21:31:21.854Z,-4.50
2022-11-19T21:33:49.022Z,-4.40
2022-11-19T21:46:08.226Z,-4.50
2022-11-19T21:48:37.936Z,-4.50
2022-11-19T21:51:08.706Z,-4.30
2022-11-19T22:01:02.640Z,-4.00
2022-11-19T22:03:32.320Z,-3.70
2022-11-19T22:06:05.624Z,-3.90
2022-11-19T22:08:34.411Z,-3.70
2022-11-19T22:11:21.823Z,-4.00
2022-11-19T22:18:43.731Z,-4.50
2022-11-19T22:21:10.853Z,-4.70
2022-11-19T22:26:07.409Z,-4.50
2022-11-19T22:28:34.725Z,-4.30
2022-11-19T22:33:40.029Z,-4.10
2022-11-19T22:36:10.298Z,-4.30
2022-11-19T22:38:38.968Z,-4.50
2022-11-19T22:41:13.962Z,-4.60
2022-11-19T22:43:41.900Z,-4.70
2022-11-19T22:46:10.614Z,-5.20
2022-11-19T22:51:07.533Z,-4.70
2022-11-19T22:53:37.644Z,-4.50
2022-11-19T22:56:07.824Z,-4.60
2022-11-19T22:58:35.834Z,-4.30
2022-11-19T23:01:04.027Z,-4.90
2022-11-19T23:03:31.020Z,-4.90
2022-11-19T23:11:01.990Z,-5.10
2022-11-19T23:13:33.985Z,-5.00
2022-11-19T23:16:13.036Z,-5.40
2022-11-19T23:18:42.723Z,-5.30
2022-11-19T23:21:18.635Z,-5.20
2022-11-19T23:26:14.738Z,-4.60
2022-11-19T23:31:13.782Z,-5.40
2022-11-19T23:36:11.930Z,-5.20
2022-11-19T23:38:39.722Z,-5.20
2022-11-19T23:41:09.644Z,-5.30
2022-11-19T23:46:06.135Z,-5.40
2022-11-19T23:51:24.580Z,-5.20
2022-11-19T23:53:52.292Z,-5.40
2022-11-19T23:56:21.416Z,-5.50
2022-11-19T23:58:48.807Z,-4.90
